sensor_id;sensor_type;location;lat;lon;timestamp;temperature;humidity
4759;DHT22;2393;50.560;12.636;2024-03-29T00:01:30;6.30;99.90
4759;DHT22;2393;50.560;12.636;2024-03-29T00:03:56;6.30;99.90
4759;DHT22;2393;50.560;12.636;2024-03-29T00:06:24;6.20;99.90
4759;DHT22;2393;50.560;12.636;2024-03-29T00:08:51;6.20;99.90
4759;DHT22;2393;50.560;12.636;2024-03-29T00:11:19;6.20;99.90
4759;DHT22;2393;50.560;12.636;2024-03-29T00:13:45;6.20;99.90
4759;DHT22;2393;50.560;12.636;2024-03-29T00:16:12;6.20;99.90
4759;DHT22;2393;50.560;12.636;2024-03-29T00:18:38;6.20;99.90
4759;DHT22;2393;50.560;12.636;2024-03-29T00:21:05;6.20;99.90
4759;DHT22;2393;50.560;12.636;2024-03-29T00:23:31;6.20;99.90
4759;DHT22;2393;50.560;12.636;2024-03-29T00:25:58;6.20;99.90
4759;DHT22;2393;50.560;12.636;2024-03-29T00:28:26;6.10;99.90
4759;DHT22;2393;50.560;12.636;2024-03-29T00:30:53;6.10;99.90
4759;DHT22;2393;50.560;12.636;2024-03-29T00:33:19;6.10;99.90
4759;DHT22;2393;50.560;12.636;2024-03-29T00:35:46;6.00;99.90
4759;DHT22;2393;50.560;12.636;2024-03-29T00:38:12;6.00;99.90
4759;DHT22;2393;50.560;12.636;2024-03-29T00:40:39;5.90;99.90
4759;DHT22;2393;50.560;12.636;2024-03-29T00:43:05;6.00;99.90
4759;DHT22;2393;50.560;12.636;2024-03-29T00:45:33;5.90;99.90
4759;DHT22;2393;50.560;12.636;2024-03-29T00:48:00;5.90;99.90
4759;DHT22;2393;50.560;12.636;2024-03-29T00:50:27;5.90;99.90
4759;DHT22;2393;50.560;12.636;2024-03-29T00:52:54;5.90;99.90
4759;DHT22;2393;50.560;12.636;2024-03-29T00:55:21;5.80;99.90
4759;DHT22;2393;50.560;12.636;2024-03-29T00:57:48;5.80;99.90
4759;DHT22;2393;50.560;12.636;2024-03-29T01:00:15;5.80;99.90
4759;DHT22;2393;50.560;12.636;2024-03-29T01:02:43;5.80;99.90
4759;DHT22;2393;50.560;12.636;2024-03-29T01:05:09;5.90;99.90
4759;DHT22;2393;50.560;12.636;2024-03-29T01:07:36;5.90;99.90
4759;DHT22;2393;50.560;12.636;2024-03-29T01:10:02;5.90;99.90
4759;DHT22;2393;50.560;12.636;2024-03-29T01:12:29;5.90;99.90
4759;DHT22;2393;50.560;12.636;2024-03-29T01:14:56;5.90;99.90
4759;DHT22;2393;50.560;12.636;2024-03-29T01:17:22;5.90;99.90
4759;DHT22;2393;50.560;12.636;2024-03-29T01:19:51;5.90;99.90
4759;DHT22;2393;50.560;12.636;2024-03-29T01:22:17;5.90;99.90
4759;DHT22;2393;50.560;12.636;2024-03-29T01:24:44;5.90;99.90
4759;DHT22;2393;50.560;12.636;2024-03-29T01:27:10;5.90;99.90
4759;DHT22;2393;50.560;12.636;2024-03-29T01:29:37;5.90;99.90
4759;DHT22;2393;50.560;12.636;2024-03-29T01:32:04;5.90;99.90
4759;DHT22;2393;50.560;12.636;2024-03-29T01:34:31;5.90;99.90
4759;DHT22;2393;50.560;12.636;2024-03-29T01:36:59;5.90;99.90
4759;DHT22;2393;50.560;12.636;2024-03-29T01:39:25;5.90;99.90
4759;DHT22;2393;50.560;12.636;2024-03-29T01:41:52;5.90;99.90
4759;DHT22;2393;50.560;12.636;2024-03-29T01:44:19;5.90;99.90
4759;DHT22;2393;50.560;12.636;2024-03-29T01:46:47;5.90;99.90
4759;DHT22;2393;50.560;12.636;2024-03-29T01:49:14;6.00;99.90
4759;DHT22;2393;50.560;12.636;2024-03-29T01:51:43;6.00;99.90
4759;DHT22;2393;50.560;12.636;2024-03-29T01:54:12;5.90;99.90
4759;DHT22;2393;50.560;12.636;2024-03-29T01:56:41;6.00;99.90
4759;DHT22;2393;50.560;12.636;2024-03-29T01:59:13;6.00;99.90
4759;DHT22;2393;50.560;12.636;2024-03-29T02:01:41;6.00;99.90
4759;DHT22;2393;50.560;12.636;2024-03-29T02:04:09;6.00;99.90
4759;DHT22;2393;50.560;12.636;2024-03-29T02:06:38;6.00;99.90
4759;DHT22;2393;50.560;12.636;2024-03-29T02:09:05;6.00;99.90
4759;DHT22;2393;50.560;12.636;2024-03-29T02:11:35;6.00;99.90
4759;DHT22;2393;50.560;12.636;2024-03-29T02:14:04;6.00;99.90
4759;DHT22;2393;50.560;12.636;2024-03-29T02:16:32;6.10;99.90
4759;DHT22;2393;50.560;12.636;2024-03-29T02:19:02;6.00;99.90
4759;DHT22;2393;50.560;12.636;2024-03-29T02:21:30;5.90;99.90
4759;DHT22;2393;50.560;12.636;2024-03-29T02:24:04;5.90;99.90
4759;DHT22;2393;50.560;12.636;2024-03-29T02:26:32;5.90;99.90
4759;DHT22;2393;50.560;12.636;2024-03-29T02:29:04;5.90;99.90
4759;DHT22;2393;50.560;12.636;2024-03-29T02:31:32;5.80;99.90
4759;DHT22;2393;50.560;12.636;2024-03-29T02:33:59;5.80;99.90
4759;DHT22;2393;50.560;12.636;2024-03-29T02:36:27;5.80;99.90
4759;DHT22;2393;50.560;12.636;2024-03-29T02:38:55;5.80;99.90
4759;DHT22;2393;50.560;12.636;2024-03-29T02:41:24;5.80;99.90
4759;DHT22;2393;50.560;12.636;2024-03-29T02:43:54;5.80;99.90
4759;DHT22;2393;50.560;12.636;2024-03-29T02:46:21;5.80;99.90
4759;DHT22;2393;50.560;12.636;2024-03-29T02:48:48;5.80;99.90
4759;DHT22;2393;50.560;12.636;2024-03-29T02:51:16;5.90;99.90
4759;DHT22;2393;50.560;12.636;2024-03-29T02:53:42;5.90;99.90
4759;DHT22;2393;50.560;12.636;2024-03-29T02:56:10;5.90;99.90
4759;DHT22;2393;50.560;12.636;2024-03-29T02:58:38;5.90;99.90
4759;DHT22;2393;50.560;12.636;2024-03-29T03:01:06;5.90;99.90
4759;DHT22;2393;50.560;12.636;2024-03-29T03:03:33;6.00;99.90
4759;DHT22;2393;50.560;12.636;2024-03-29T03:06:00;6.00;99.90
4759;DHT22;2393;50.560;12.636;2024-03-29T03:08:26;6.10;99.90
4759;DHT22;2393;50.560;12.636;2024-03-29T03:11:11;6.10;99.90
4759;DHT22;2393;50.560;12.636;2024-03-29T03:13:40;6.10;99.90
4759;DHT22;2393;50.560;12.636;2024-03-29T03:16:07;6.10;99.90
4759;DHT22;2393;50.560;12.636;2024-03-29T03:18:35;6.20;99.90
4759;DHT22;2393;50.560;12.636;2024-03-29T03:21:02;6.30;99.90
4759;DHT22;2393;50.560;12.636;2024-03-29T03:23:29;6.30;99.90
4759;DHT22;2393;50.560;12.636;2024-03-29T03:25:58;6.30;99.90
4759;DHT22;2393;50.560;12.636;2024-03-29T03:28:25;6.40;99.90
4759;DHT22;2393;50.560;12.636;2024-03-29T03:30:54;6.50;99.90
4759;DHT22;2393;50.560;12.636;2024-03-29T03:33:21;6.60;99.90
4759;DHT22;2393;50.560;12.636;2024-03-29T03:35:49;6.70;99.90
4759;DHT22;2393;50.560;12.636;2024-03-29T03:38:16;6.70;99.90
4759;DHT22;2393;50.560;12.636;2024-03-29T03:40:43;6.80;99.90
4759;DHT22;2393;50.560;12.636;2024-03-29T03:43:10;6.80;99.90
4759;DHT22;2393;50.560;12.636;2024-03-29T03:45:39;6.90;99.90
4759;DHT22;2393;50.560;12.636;2024-03-29T03:48:08;6.90;99.90
4759;DHT22;2393;50.560;12.636;2024-03-29T03:50:37;6.90;99.90
4759;DHT22;2393;50.560;12.636;2024-03-29T03:53:04;7.00;99.90
4759;DHT22;2393;50.560;12.636;2024-03-29T03:55:35;7.10;99.90
4759;DHT22;2393;50.560;12.636;2024-03-29T03:58:02;7.10;99.90
4759;DHT22;2393;50.560;12.636;2024-03-29T04:00:30;7.10;99.90
4759;DHT22;2393;50.560;12.636;2024-03-29T04:02:57;7.10;99.90
4759;DHT22;2393;50.560;12.636;2024-03-29T04:05:26;7.20;99.90
4759;DHT22;2393;50.560;12.636;2024-03-29T04:07:52;7.30;99.90
4759;DHT22;2393;50.560;12.636;2024-03-29T04:10:20;7.30;99.90
4759;DHT22;2393;50.560;12.636;2024-03-29T04:12:46;7.30;99.90
4759;DHT22;2393;50.560;12.636;2024-03-29T04:15:14;7.30;99.90
4759;DHT22;2393;50.560;12.636;2024-03-29T04:17:41;7.40;99.90
4759;DHT22;2393;50.560;12.636;2024-03-29T04:20:09;7.40;99.90
4759;DHT22;2393;50.560;12.636;2024-03-29T04:22:37;7.40;99.90
4759;DHT22;2393;50.560;12.636;2024-03-29T04:25:05;7.40;99.90
4759;DHT22;2393;50.560;12.636;2024-03-29T04:27:31;7.40;99.90
4759;DHT22;2393;50.560;12.636;2024-03-29T04:29:59;7.40;99.90
4759;DHT22;2393;50.560;12.636;2024-03-29T04:32:25;7.40;99.90
4759;DHT22;2393;50.560;12.636;2024-03-29T04:34:54;7.40;99.90
4759;DHT22;2393;50.560;12.636;2024-03-29T04:37:21;7.40;99.90
4759;DHT22;2393;50.560;12.636;2024-03-29T04:39:50;7.50;99.90
4759;DHT22;2393;50.560;12.636;2024-03-29T04:42:18;7.50;99.90
4759;DHT22;2393;50.560;12.636;2024-03-29T04:44:45;7.50;99.90
4759;DHT22;2393;50.560;12.636;2024-03-29T04:47:13;7.50;99.90
4759;DHT22;2393;50.560;12.636;2024-03-29T04:49:41;7.60;99.90
4759;DHT22;2393;50.560;12.636;2024-03-29T04:52:08;7.60;99.90
4759;DHT22;2393;50.560;12.636;2024-03-29T04:54:36;7.70;99.90
4759;DHT22;2393;50.560;12.636;2024-03-29T04:57:05;7.70;99.90
4759;DHT22;2393;50.560;12.636;2024-03-29T04:59:33;7.60;99.90
4759;DHT22;2393;50.560;12.636;2024-03-29T05:02:01;7.60;99.90
4759;DHT22;2393;50.560;12.636;2024-03-29T05:04:28;7.60;99.90
4759;DHT22;2393;50.560;12.636;2024-03-29T05:06:56;7.70;99.90
4759;DHT22;2393;50.560;12.636;2024-03-29T05:09:24;7.70;99.90
4759;DHT22;2393;50.560;12.636;2024-03-29T05:11:52;7.70;99.90
4759;DHT22;2393;50.560;12.636;2024-03-29T05:14:21;7.70;99.90
4759;DHT22;2393;50.560;12.636;2024-03-29T05:16:53;7.70;99.90
4759;DHT22;2393;50.560;12.636;2024-03-29T05:19:21;7.70;99.90
4759;DHT22;2393;50.560;12.636;2024-03-29T05:21:48;7.70;99.90
4759;DHT22;2393;50.560;12.636;2024-03-29T05:24:16;7.70;99.90
4759;DHT22;2393;50.560;12.636;2024-03-29T05:26:43;7.80;99.90
4759;DHT22;2393;50.560;12.636;2024-03-29T05:29:11;7.70;99.90
4759;DHT22;2393;50.560;12.636;2024-03-29T05:31:40;7.70;99.90
4759;DHT22;2393;50.560;12.636;2024-03-29T05:34:09;7.80;99.90
4759;DHT22;2393;50.560;12.636;2024-03-29T05:36:37;7.80;99.90
4759;DHT22;2393;50.560;12.636;2024-03-29T05:39:05;7.80;99.90
4759;DHT22;2393;50.560;12.636;2024-03-29T05:41:32;7.80;99.90
4759;DHT22;2393;50.560;12.636;2024-03-29T05:44:00;7.90;99.90
4759;DHT22;2393;50.560;12.636;2024-03-29T05:46:27;7.90;99.90
4759;DHT22;2393;50.560;12.636;2024-03-29T05:48:57;7.90;99.90
4759;DHT22;2393;50.560;12.636;2024-03-29T05:51:24;7.90;99.90
4759;DHT22;2393;50.560;12.636;2024-03-29T05:53:52;7.90;99.90
4759;DHT22;2393;50.560;12.636;2024-03-29T05:56:22;7.90;99.90
4759;DHT22;2393;50.560;12.636;2024-03-29T05:58:50;7.90;99.90
4759;DHT22;2393;50.560;12.636;2024-03-29T06:01:17;8.00;99.90
4759;DHT22;2393;50.560;12.636;2024-03-29T06:03:45;7.90;99.90
4759;DHT22;2393;50.560;12.636;2024-03-29T06:06:14;8.00;99.90
4759;DHT22;2393;50.560;12.636;2024-03-29T06:08:44;8.00;99.90
4759;DHT22;2393;50.560;12.636;2024-03-29T06:11:11;8.00;99.90
4759;DHT22;2393;50.560;12.636;2024-03-29T06:13:39;8.10;99.90
4759;DHT22;2393;50.560;12.636;2024-03-29T06:16:25;8.10;99.90
4759;DHT22;2393;50.560;12.636;2024-03-29T06:19:10;8.20;99.90
4759;DHT22;2393;50.560;12.636;2024-03-29T06:21:41;8.10;99.90
4759;DHT22;2393;50.560;12.636;2024-03-29T06:24:13;8.10;99.90
4759;DHT22;2393;50.560;12.636;2024-03-29T06:26:42;8.20;99.90
4759;DHT22;2393;50.560;12.636;2024-03-29T06:29:10;8.20;99.90
4759;DHT22;2393;50.560;12.636;2024-03-29T06:31:37;8.20;99.90
4759;DHT22;2393;50.560;12.636;2024-03-29T06:34:05;8.30;99.90
4759;DHT22;2393;50.560;12.636;2024-03-29T06:36:33;8.30;99.90
4759;DHT22;2393;50.560;12.636;2024-03-29T06:39:03;8.40;99.90
4759;DHT22;2393;50.560;12.636;2024-03-29T06:41:31;8.40;99.90
4759;DHT22;2393;50.560;12.636;2024-03-29T06:43:58;8.40;99.90
4759;DHT22;2393;50.560;12.636;2024-03-29T06:46:26;8.40;99.90
4759;DHT22;2393;50.560;12.636;2024-03-29T06:48:53;8.40;99.90
4759;DHT22;2393;50.560;12.636;2024-03-29T06:51:21;8.40;99.90
4759;DHT22;2393;50.560;12.636;2024-03-29T06:53:48;8.40;99.90
4759;DHT22;2393;50.560;12.636;2024-03-29T06:56:18;8.30;99.90
4759;DHT22;2393;50.560;12.636;2024-03-29T06:58:45;8.30;99.90
4759;DHT22;2393;50.560;12.636;2024-03-29T07:01:12;8.20;99.90
4759;DHT22;2393;50.560;12.636;2024-03-29T07:03:40;8.30;99.90
4759;DHT22;2393;50.560;12.636;2024-03-29T07:06:07;8.40;99.90
4759;DHT22;2393;50.560;12.636;2024-03-29T07:08:35;8.60;99.90
4759;DHT22;2393;50.560;12.636;2024-03-29T07:11:03;8.60;99.90
4759;DHT22;2393;50.560;12.636;2024-03-29T07:13:32;8.70;99.90
4759;DHT22;2393;50.560;12.636;2024-03-29T07:16:00;8.70;99.90
4759;DHT22;2393;50.560;12.636;2024-03-29T07:18:28;8.70;99.90
4759;DHT22;2393;50.560;12.636;2024-03-29T07:20:55;8.70;99.90
4759;DHT22;2393;50.560;12.636;2024-03-29T07:23:23;8.70;99.90
4759;DHT22;2393;50.560;12.636;2024-03-29T07:26:00;8.80;99.90
4759;DHT22;2393;50.560;12.636;2024-03-29T07:28:29;8.90;99.90
4759;DHT22;2393;50.560;12.636;2024-03-29T07:30:58;8.90;99.90
4759;DHT22;2393;50.560;12.636;2024-03-29T07:33:32;8.90;99.90
4759;DHT22;2393;50.560;12.636;2024-03-29T07:36:00;8.90;99.90
4759;DHT22;2393;50.560;12.636;2024-03-29T07:38:28;8.90;99.90
4759;DHT22;2393;50.560;12.636;2024-03-29T07:40:56;9.00;99.90
4759;DHT22;2393;50.560;12.636;2024-03-29T07:43:23;9.10;99.90
4759;DHT22;2393;50.560;12.636;2024-03-29T07:45:51;9.20;99.90
4759;DHT22;2393;50.560;12.636;2024-03-29T07:48:20;9.30;99.90
4759;DHT22;2393;50.560;12.636;2024-03-29T07:50:47;9.40;99.90
4759;DHT22;2393;50.560;12.636;2024-03-29T07:53:15;9.40;99.90
4759;DHT22;2393;50.560;12.636;2024-03-29T07:55:42;9.60;99.90
4759;DHT22;2393;50.560;12.636;2024-03-29T07:58:10;9.60;99.90
4759;DHT22;2393;50.560;12.636;2024-03-29T08:00:40;9.70;99.90
4759;DHT22;2393;50.560;12.636;2024-03-29T08:03:08;9.70;99.90
4759;DHT22;2393;50.560;12.636;2024-03-29T08:05:37;9.80;99.90
4759;DHT22;2393;50.560;12.636;2024-03-29T08:08:06;9.90;99.90
4759;DHT22;2393;50.560;12.636;2024-03-29T08:10:34;9.90;99.90
4759;DHT22;2393;50.560;12.636;2024-03-29T08:13:01;9.90;99.90
4759;DHT22;2393;50.560;12.636;2024-03-29T08:15:29;9.90;99.90
4759;DHT22;2393;50.560;12.636;2024-03-29T08:17:58;10.00;99.90
4759;DHT22;2393;50.560;12.636;2024-03-29T08:20:26;10.10;99.90
4759;DHT22;2393;50.560;12.636;2024-03-29T08:23:00;10.10;99.90
4759;DHT22;2393;50.560;12.636;2024-03-29T08:25:27;10.10;99.90
4759;DHT22;2393;50.560;12.636;2024-03-29T08:27:55;10.20;99.90
4759;DHT22;2393;50.560;12.636;2024-03-29T08:30:24;10.30;99.90
4759;DHT22;2393;50.560;12.636;2024-03-29T08:32:52;10.40;99.90
4759;DHT22;2393;50.560;12.636;2024-03-29T08:35:20;10.50;99.90
4759;DHT22;2393;50.560;12.636;2024-03-29T08:37:47;10.60;99.90
4759;DHT22;2393;50.560;12.636;2024-03-29T08:40:17;10.90;99.90
4759;DHT22;2393;50.560;12.636;2024-03-29T08:42:45;11.20;99.90
4759;DHT22;2393;50.560;12.636;2024-03-29T08:45:13;11.40;99.90
4759;DHT22;2393;50.560;12.636;2024-03-29T08:47:40;11.70;99.90
4759;DHT22;2393;50.560;12.636;2024-03-29T08:50:08;12.00;99.90
4759;DHT22;2393;50.560;12.636;2024-03-29T08:52:38;12.30;99.90
4759;DHT22;2393;50.560;12.636;2024-03-29T08:55:07;12.50;99.90
4759;DHT22;2393;50.560;12.636;2024-03-29T08:57:36;12.70;99.90
4759;DHT22;2393;50.560;12.636;2024-03-29T09:00:04;12.90;99.90
4759;DHT22;2393;50.560;12.636;2024-03-29T09:02:32;12.90;99.90
4759;DHT22;2393;50.560;12.636;2024-03-29T09:05:00;12.90;99.90
4759;DHT22;2393;50.560;12.636;2024-03-29T09:07:28;13.00;99.90
4759;DHT22;2393;50.560;12.636;2024-03-29T09:09:55;13.00;99.90
4759;DHT22;2393;50.560;12.636;2024-03-29T09:12:24;12.90;99.90
4759;DHT22;2393;50.560;12.636;2024-03-29T09:14:53;12.80;99.90
4759;DHT22;2393;50.560;12.636;2024-03-29T09:17:20;12.90;99.90
4759;DHT22;2393;50.560;12.636;2024-03-29T09:19:50;12.90;99.90
4759;DHT22;2393;50.560;12.636;2024-03-29T09:22:19;12.80;99.90
4759;DHT22;2393;50.560;12.636;2024-03-29T09:24:46;12.70;99.90
4759;DHT22;2393;50.560;12.636;2024-03-29T09:27:14;12.70;99.50
4759;DHT22;2393;50.560;12.636;2024-03-29T09:29:42;12.80;99.00
4759;DHT22;2393;50.560;12.636;2024-03-29T09:32:11;12.80;99.90
4759;DHT22;2393;50.560;12.636;2024-03-29T09:34:38;12.90;99.90
4759;DHT22;2393;50.560;12.636;2024-03-29T09:37:06;13.00;99.90
4759;DHT22;2393;50.560;12.636;2024-03-29T09:39:33;13.30;99.90
4759;DHT22;2393;50.560;12.636;2024-03-29T09:42:02;13.50;98.10
4759;DHT22;2393;50.560;12.636;2024-03-29T09:44:32;13.60;97.10
4759;DHT22;2393;50.560;12.636;2024-03-29T09:47:03;13.50;97.80
4759;DHT22;2393;50.560;12.636;2024-03-29T09:49:32;13.50;96.20
4759;DHT22;2393;50.560;12.636;2024-03-29T09:52:00;13.60;97.80
4759;DHT22;2393;50.560;12.636;2024-03-29T09:54:28;13.70;96.30
4759;DHT22;2393;50.560;12.636;2024-03-29T09:56:57;13.70;97.50
4759;DHT22;2393;50.560;12.636;2024-03-29T09:59:24;13.70;96.60
4759;DHT22;2393;50.560;12.636;2024-03-29T10:01:54;13.70;96.60
4759;DHT22;2393;50.560;12.636;2024-03-29T10:04:23;13.50;95.80
4759;DHT22;2393;50.560;12.636;2024-03-29T10:06:53;13.40;94.80
4759;DHT22;2393;50.560;12.636;2024-03-29T10:09:22;13.30;96.40
4759;DHT22;2393;50.560;12.636;2024-03-29T10:11:53;13.40;97.50
4759;DHT22;2393;50.560;12.636;2024-03-29T10:14:21;13.40;97.50
4759;DHT22;2393;50.560;12.636;2024-03-29T10:16:51;13.30;97.50
4759;DHT22;2393;50.560;12.636;2024-03-29T10:19:19;13.10;97.20
4759;DHT22;2393;50.560;12.636;2024-03-29T10:21:48;13.10;97.00
4759;DHT22;2393;50.560;12.636;2024-03-29T10:24:17;13.00;97.50
4759;DHT22;2393;50.560;12.636;2024-03-29T10:26:44;12.90;97.40
4759;DHT22;2393;50.560;12.636;2024-03-29T10:29:12;12.70;96.90
4759;DHT22;2393;50.560;12.636;2024-03-29T10:31:39;12.70;96.90
4759;DHT22;2393;50.560;12.636;2024-03-29T10:34:07;12.70;97.60
4759;DHT22;2393;50.560;12.636;2024-03-29T10:36:35;12.60;98.20
4759;DHT22;2393;50.560;12.636;2024-03-29T10:39:09;12.50;98.10
4759;DHT22;2393;50.560;12.636;2024-03-29T10:41:40;12.40;98.80
4759;DHT22;2393;50.560;12.636;2024-03-29T10:44:09;12.40;98.40
4759;DHT22;2393;50.560;12.636;2024-03-29T10:46:38;12.40;98.50
4759;DHT22;2393;50.560;12.636;2024-03-29T10:49:09;12.30;98.40
4759;DHT22;2393;50.560;12.636;2024-03-29T10:51:38;12.20;99.20
4759;DHT22;2393;50.560;12.636;2024-03-29T10:54:08;12.10;99.40
4759;DHT22;2393;50.560;12.636;2024-03-29T10:56:36;12.20;99.60
4759;DHT22;2393;50.560;12.636;2024-03-29T10:59:09;12.10;99.20
4759;DHT22;2393;50.560;12.636;2024-03-29T11:01:38;12.10;98.70
4759;DHT22;2393;50.560;12.636;2024-03-29T11:04:12;12.20;99.60
4759;DHT22;2393;50.560;12.636;2024-03-29T11:06:40;12.30;99.70
4759;DHT22;2393;50.560;12.636;2024-03-29T11:09:11;12.40;99.90
4759;DHT22;2393;50.560;12.636;2024-03-29T11:11:41;12.50;99.90
4759;DHT22;2393;50.560;12.636;2024-03-29T11:14:14;12.50;99.90
4759;DHT22;2393;50.560;12.636;2024-03-29T11:16:43;12.60;99.90
4759;DHT22;2393;50.560;12.636;2024-03-29T11:19:13;12.80;99.80
4759;DHT22;2393;50.560;12.636;2024-03-29T11:21:41;12.90;99.90
4759;DHT22;2393;50.560;12.636;2024-03-29T11:24:11;13.00;99.90
4759;DHT22;2393;50.560;12.636;2024-03-29T11:26:39;13.10;99.90
4759;DHT22;2393;50.560;12.636;2024-03-29T11:29:19;13.10;99.90
4759;DHT22;2393;50.560;12.636;2024-03-29T11:31:47;13.20;99.90
4759;DHT22;2393;50.560;12.636;2024-03-29T11:34:19;13.20;99.90
4759;DHT22;2393;50.560;12.636;2024-03-29T11:36:46;13.30;99.90
4759;DHT22;2393;50.560;12.636;2024-03-29T11:39:20;13.30;99.90
4759;DHT22;2393;50.560;12.636;2024-03-29T11:41:48;13.40;99.90
4759;DHT22;2393;50.560;12.636;2024-03-29T11:44:16;13.80;99.90
4759;DHT22;2393;50.560;12.636;2024-03-29T11:46:46;14.00;99.90
4759;DHT22;2393;50.560;12.636;2024-03-29T11:49:15;14.10;99.90
4759;DHT22;2393;50.560;12.636;2024-03-29T11:51:43;14.30;99.90
4759;DHT22;2393;50.560;12.636;2024-03-29T11:54:10;14.30;99.90
4759;DHT22;2393;50.560;12.636;2024-03-29T11:56:38;14.40;99.90
4759;DHT22;2393;50.560;12.636;2024-03-29T11:59:05;14.50;99.90
4759;DHT22;2393;50.560;12.636;2024-03-29T12:01:33;14.60;99.90
4759;DHT22;2393;50.560;12.636;2024-03-29T12:04:03;14.80;99.90
4759;DHT22;2393;50.560;12.636;2024-03-29T12:06:31;14.90;99.90
4759;DHT22;2393;50.560;12.636;2024-03-29T12:08:58;15.00;99.90
4759;DHT22;2393;50.560;12.636;2024-03-29T12:11:26;15.10;99.90
4759;DHT22;2393;50.560;12.636;2024-03-29T12:13:54;15.10;99.90
4759;DHT22;2393;50.560;12.636;2024-03-29T12:16:23;15.30;99.90
4759;DHT22;2393;50.560;12.636;2024-03-29T12:18:51;15.60;99.90
4759;DHT22;2393;50.560;12.636;2024-03-29T12:21:20;15.90;99.90
4759;DHT22;2393;50.560;12.636;2024-03-29T12:23:48;16.20;99.90
4759;DHT22;2393;50.560;12.636;2024-03-29T12:26:16;16.40;99.90
4759;DHT22;2393;50.560;12.636;2024-03-29T12:28:49;16.50;99.90
4759;DHT22;2393;50.560;12.636;2024-03-29T12:31:16;16.30;99.90
4759;DHT22;2393;50.560;12.636;2024-03-29T12:33:51;16.20;99.90
4759;DHT22;2393;50.560;12.636;2024-03-29T12:36:23;16.30;99.90
4759;DHT22;2393;50.560;12.636;2024-03-29T12:38:54;16.40;99.90
4759;DHT22;2393;50.560;12.636;2024-03-29T12:41:25;16.70;99.90
4759;DHT22;2393;50.560;12.636;2024-03-29T12:43:52;16.80;99.90
4759;DHT22;2393;50.560;12.636;2024-03-29T12:46:20;16.90;99.90
4759;DHT22;2393;50.560;12.636;2024-03-29T12:48:47;17.00;99.90
4759;DHT22;2393;50.560;12.636;2024-03-29T12:51:14;17.10;99.90
4759;DHT22;2393;50.560;12.636;2024-03-29T12:53:47;17.20;99.90
4759;DHT22;2393;50.560;12.636;2024-03-29T12:56:15;17.00;99.90
4759;DHT22;2393;50.560;12.636;2024-03-29T12:58:42;17.10;99.90
4759;DHT22;2393;50.560;12.636;2024-03-29T13:01:10;17.00;99.90
4759;DHT22;2393;50.560;12.636;2024-03-29T13:03:38;17.10;99.90
4759;DHT22;2393;50.560;12.636;2024-03-29T13:06:07;17.10;99.90
4759;DHT22;2393;50.560;12.636;2024-03-29T13:08:34;17.20;99.90
4759;DHT22;2393;50.560;12.636;2024-03-29T13:11:04;17.10;99.90
4759;DHT22;2393;50.560;12.636;2024-03-29T13:13:32;17.30;99.90
4759;DHT22;2393;50.560;12.636;2024-03-29T13:16:00;17.50;99.90
4759;DHT22;2393;50.560;12.636;2024-03-29T13:18:27;17.50;99.90
4759;DHT22;2393;50.560;12.636;2024-03-29T13:20:55;17.50;99.90
4759;DHT22;2393;50.560;12.636;2024-03-29T13:23:26;17.40;99.90
4759;DHT22;2393;50.560;12.636;2024-03-29T13:25:53;17.50;99.90
4759;DHT22;2393;50.560;12.636;2024-03-29T13:28:24;17.50;99.90
4759;DHT22;2393;50.560;12.636;2024-03-29T13:30:52;17.60;99.90
4759;DHT22;2393;50.560;12.636;2024-03-29T13:33:19;17.60;99.90
4759;DHT22;2393;50.560;12.636;2024-03-29T13:35:47;17.50;99.90
4759;DHT22;2393;50.560;12.636;2024-03-29T13:38:14;17.70;99.90
4759;DHT22;2393;50.560;12.636;2024-03-29T13:40:42;17.90;99.90
4759;DHT22;2393;50.560;12.636;2024-03-29T13:43:10;18.10;99.90
4759;DHT22;2393;50.560;12.636;2024-03-29T13:45:39;18.20;99.90
4759;DHT22;2393;50.560;12.636;2024-03-29T13:48:07;18.30;99.90
4759;DHT22;2393;50.560;12.636;2024-03-29T13:50:34;18.40;99.90
4759;DHT22;2393;50.560;12.636;2024-03-29T13:53:02;18.60;99.90
4759;DHT22;2393;50.560;12.636;2024-03-29T13:55:30;18.80;99.90
4759;DHT22;2393;50.560;12.636;2024-03-29T13:57:58;18.90;99.90
4759;DHT22;2393;50.560;12.636;2024-03-29T14:00:25;18.90;99.90
4759;DHT22;2393;50.560;12.636;2024-03-29T14:02:54;18.90;99.90
4759;DHT22;2393;50.560;12.636;2024-03-29T14:05:22;18.90;99.90
4759;DHT22;2393;50.560;12.636;2024-03-29T14:07:50;19.10;99.90
4759;DHT22;2393;50.560;12.636;2024-03-29T14:10:17;19.00;99.90
4759;DHT22;2393;50.560;12.636;2024-03-29T14:12:45;18.80;99.90
4759;DHT22;2393;50.560;12.636;2024-03-29T14:15:13;18.80;99.90
4759;DHT22;2393;50.560;12.636;2024-03-29T14:17:40;18.80;99.90
4759;DHT22;2393;50.560;12.636;2024-03-29T14:20:10;18.70;99.90
4759;DHT22;2393;50.560;12.636;2024-03-29T14:22:37;18.60;99.90
4759;DHT22;2393;50.560;12.636;2024-03-29T14:25:06;18.40;99.90
4759;DHT22;2393;50.560;12.636;2024-03-29T14:27:37;18.20;99.90
4759;DHT22;2393;50.560;12.636;2024-03-29T14:30:13;18.10;99.90
4759;DHT22;2393;50.560;12.636;2024-03-29T14:32:45;18.20;99.90
4759;DHT22;2393;50.560;12.636;2024-03-29T14:35:14;18.10;99.90
4759;DHT22;2393;50.560;12.636;2024-03-29T14:37:43;18.20;99.90
4759;DHT22;2393;50.560;12.636;2024-03-29T14:40:11;18.00;99.90
4759;DHT22;2393;50.560;12.636;2024-03-29T14:42:41;17.90;99.90
4759;DHT22;2393;50.560;12.636;2024-03-29T14:45:10;17.90;99.90
4759;DHT22;2393;50.560;12.636;2024-03-29T14:47:38;17.90;99.90
4759;DHT22;2393;50.560;12.636;2024-03-29T14:50:06;17.90;99.90
4759;DHT22;2393;50.560;12.636;2024-03-29T14:52:36;18.00;99.90
4759;DHT22;2393;50.560;12.636;2024-03-29T14:55:04;18.00;99.90
4759;DHT22;2393;50.560;12.636;2024-03-29T14:57:31;18.00;99.90
4759;DHT22;2393;50.560;12.636;2024-03-29T14:59:59;18.00;99.90
4759;DHT22;2393;50.560;12.636;2024-03-29T15:02:26;17.80;99.90
4759;DHT22;2393;50.560;12.636;2024-03-29T15:04:54;17.60;99.90
4759;DHT22;2393;50.560;12.636;2024-03-29T15:07:21;17.50;99.90
4759;DHT22;2393;50.560;12.636;2024-03-29T15:09:51;17.40;99.90
4759;DHT22;2393;50.560;12.636;2024-03-29T15:12:18;17.10;99.90
4759;DHT22;2393;50.560;12.636;2024-03-29T15:14:46;17.10;99.90
4759;DHT22;2393;50.560;12.636;2024-03-29T15:17:13;17.10;99.90
4759;DHT22;2393;50.560;12.636;2024-03-29T15:19:41;17.20;99.90
4759;DHT22;2393;50.560;12.636;2024-03-29T15:22:08;17.20;99.90
4759;DHT22;2393;50.560;12.636;2024-03-29T15:24:38;17.20;99.90
4759;DHT22;2393;50.560;12.636;2024-03-29T15:27:07;17.10;99.90
4759;DHT22;2393;50.560;12.636;2024-03-29T15:29:42;17.10;99.90
4759;DHT22;2393;50.560;12.636;2024-03-29T15:32:08;17.10;99.90
4759;DHT22;2393;50.560;12.636;2024-03-29T15:34:36;17.10;99.90
4759;DHT22;2393;50.560;12.636;2024-03-29T15:37:03;17.10;99.90
4759;DHT22;2393;50.560;12.636;2024-03-29T15:39:31;17.00;99.90
4759;DHT22;2393;50.560;12.636;2024-03-29T15:41:58;17.00;99.90
4759;DHT22;2393;50.560;12.636;2024-03-29T15:44:27;17.00;99.90
4759;DHT22;2393;50.560;12.636;2024-03-29T15:46:55;17.00;99.90
4759;DHT22;2393;50.560;12.636;2024-03-29T15:49:22;17.10;99.90
4759;DHT22;2393;50.560;12.636;2024-03-29T15:51:50;17.10;99.90
4759;DHT22;2393;50.560;12.636;2024-03-29T15:54:17;17.10;99.90
4759;DHT22;2393;50.560;12.636;2024-03-29T15:56:46;17.10;99.90
4759;DHT22;2393;50.560;12.636;2024-03-29T15:59:13;17.20;99.90
4759;DHT22;2393;50.560;12.636;2024-03-29T16:01:44;17.30;99.90